Terminal Aerodrome Forecast
Issued by NWS Billings, MT

Home | Current Version | Previous Version | Text Only | Print | Product List | Glossary On
Versions: 1 2 3 4 5 6 7 8 9 10 11 12 13 14 15 16 17
000
FTUS45 KBYZ 201737
TAFBIL
TAF
KBIL 201737Z 2018/2118 31018G27KT P6SM FEW100 SCT200
     FM210130 28005KT P6SM SKC
     FM211200 22006KT P6SM FEW200=

USA.gov is the U.S. government's official web portal to all federal, state and local government web resources and services.